sensor_id;sensor_type;location;lat;lon;timestamp;temperature;humidity
67868;SHT31;54672;46.096;14.470;2023-07-29T00:00:32;18.46;88.65
67868;SHT31;54672;46.096;14.470;2023-07-29T00:02:57;18.37;88.82
67868;SHT31;54672;46.096;14.470;2023-07-29T00:05:23;18.33;89.01
67868;SHT31;54672;46.096;14.470;2023-07-29T00:07:48;18.32;89.17
67868;SHT31;54672;46.096;14.470;2023-07-29T00:10:14;18.30;89.27
67868;SHT31;54672;46.096;14.470;2023-07-29T00:12:39;18.26;89.56
67868;SHT31;54672;46.096;14.470;2023-07-29T00:15:05;18.23;89.63
67868;SHT31;54672;46.096;14.470;2023-07-29T00:17:31;18.12;90.15
67868;SHT31;54672;46.096;14.470;2023-07-29T00:19:56;17.78;91.59
67868;SHT31;54672;46.096;14.470;2023-07-29T00:22:22;17.58;92.53
67868;SHT31;54672;46.096;14.470;2023-07-29T00:24:54;17.54;92.80
67868;SHT31;54672;46.096;14.470;2023-07-29T00:27:21;17.40;93.56
67868;SHT31;54672;46.096;14.470;2023-07-29T00:29:46;17.28;94.08
67868;SHT31;54672;46.096;14.470;2023-07-29T00:32:12;17.23;94.38
67868;SHT31;54672;46.096;14.470;2023-07-29T00:34:37;17.31;93.71
67868;SHT31;54672;46.096;14.470;2023-07-29T00:37:03;17.58;92.71
67868;SHT31;54672;46.096;14.470;2023-07-29T00:39:28;17.63;92.43
67868;SHT31;54672;46.096;14.470;2023-07-29T00:41:53;17.55;92.96
67868;SHT31;54672;46.096;14.470;2023-07-29T00:44:19;17.55;92.97
67868;SHT31;54672;46.096;14.470;2023-07-29T00:46:45;17.60;92.94
67868;SHT31;54672;46.096;14.470;2023-07-29T00:49:11;17.60;92.83
67868;SHT31;54672;46.096;14.470;2023-07-29T00:51:37;17.64;92.75
67868;SHT31;54672;46.096;14.470;2023-07-29T00:54:02;17.70;92.48
67868;SHT31;54672;46.096;14.470;2023-07-29T00:56:28;17.78;92.21
67868;SHT31;54672;46.096;14.470;2023-07-29T00:58:54;17.88;92.11
67868;SHT31;54672;46.096;14.470;2023-07-29T01:01:24;17.93;91.84
67868;SHT31;54672;46.096;14.470;2023-07-29T01:03:50;17.89;91.99
67868;SHT31;54672;46.096;14.470;2023-07-29T01:12:09;17.82;92.32
67868;SHT31;54672;46.096;14.470;2023-07-29T01:14:39;17.71;93.01
67868;SHT31;54672;46.096;14.470;2023-07-29T01:17:09;17.63;93.20
67868;SHT31;54672;46.096;14.470;2023-07-29T01:20:04;17.55;93.50
67868;SHT31;54672;46.096;14.470;2023-07-29T01:22:36;17.47;93.97
67868;SHT31;54672;46.096;14.470;2023-07-29T01:25:02;17.40;94.15
67868;SHT31;54672;46.096;14.470;2023-07-29T01:27:28;17.35;94.40
67868;SHT31;54672;46.096;14.470;2023-07-29T01:29:55;17.28;94.78
67868;SHT31;54672;46.096;14.470;2023-07-29T01:32:55;17.30;95.14
67868;SHT31;54672;46.096;14.470;2023-07-29T01:35:31;17.33;95.08
67868;SHT31;54672;46.096;14.470;2023-07-29T01:38:04;17.33;94.86
67868;SHT31;54672;46.096;14.470;2023-07-29T01:40:30;17.31;94.64
67868;SHT31;54672;46.096;14.470;2023-07-29T01:42:56;17.26;94.67
67868;SHT31;54672;46.096;14.470;2023-07-29T01:45:25;17.10;95.19
67868;SHT31;54672;46.096;14.470;2023-07-29T01:47:53;16.87;95.87
67868;SHT31;54672;46.096;14.470;2023-07-29T01:50:18;16.89;96.15
67868;SHT31;54672;46.096;14.470;2023-07-29T01:52:44;16.89;96.13
67868;SHT31;54672;46.096;14.470;2023-07-29T01:55:09;16.79;96.34
67868;SHT31;54672;46.096;14.470;2023-07-29T01:57:35;16.69;96.81
67868;SHT31;54672;46.096;14.470;2023-07-29T02:00:00;16.62;97.06
67868;SHT31;54672;46.096;14.470;2023-07-29T02:02:25;16.61;97.18
67868;SHT31;54672;46.096;14.470;2023-07-29T02:04:51;16.59;97.36
67868;SHT31;54672;46.096;14.470;2023-07-29T02:07:20;16.61;97.28
67868;SHT31;54672;46.096;14.470;2023-07-29T02:09:45;16.63;97.15
67868;SHT31;54672;46.096;14.470;2023-07-29T02:12:11;16.71;96.96
67868;SHT31;54672;46.096;14.470;2023-07-29T02:14:36;16.69;96.89
67868;SHT31;54672;46.096;14.470;2023-07-29T02:17:02;16.69;96.94
67868;SHT31;54672;46.096;14.470;2023-07-29T02:19:27;16.69;97.05
67868;SHT31;54672;46.096;14.470;2023-07-29T02:21:53;16.62;97.20
67868;SHT31;54672;46.096;14.470;2023-07-29T02:24:18;16.59;97.38
67868;SHT31;54672;46.096;14.470;2023-07-29T02:26:43;16.62;97.23
67868;SHT31;54672;46.096;14.470;2023-07-29T02:29:09;16.63;97.34
67868;SHT31;54672;46.096;14.470;2023-07-29T02:31:34;16.63;97.21
67868;SHT31;54672;46.096;14.470;2023-07-29T02:34:01;16.62;97.25
67868;SHT31;54672;46.096;14.470;2023-07-29T02:36:27;16.65;97.43
67868;SHT31;54672;46.096;14.470;2023-07-29T02:38:52;16.61;97.43
67868;SHT31;54672;46.096;14.470;2023-07-29T02:41:18;16.56;97.66
67868;SHT31;54672;46.096;14.470;2023-07-29T02:43:43;16.54;97.81
67868;SHT31;54672;46.096;14.470;2023-07-29T02:46:12;16.54;97.82
67868;SHT31;54672;46.096;14.470;2023-07-29T02:48:38;16.56;97.81
67868;SHT31;54672;46.096;14.470;2023-07-29T02:51:03;16.58;98.00
67868;SHT31;54672;46.096;14.470;2023-07-29T02:53:29;16.61;97.96
67868;SHT31;54672;46.096;14.470;2023-07-29T02:55:54;16.58;97.85
67868;SHT31;54672;46.096;14.470;2023-07-29T02:58:19;16.59;97.86
67868;SHT31;54672;46.096;14.470;2023-07-29T03:00:45;16.55;98.00
67868;SHT31;54672;46.096;14.470;2023-07-29T03:03:12;16.48;98.13
67868;SHT31;54672;46.096;14.470;2023-07-29T03:05:38;16.34;98.73
67868;SHT31;54672;46.096;14.470;2023-07-29T03:08:03;16.29;98.75
67868;SHT31;54672;46.096;14.470;2023-07-29T03:10:29;16.35;98.56
67868;SHT31;54672;46.096;14.470;2023-07-29T03:12:54;16.38;98.40
67868;SHT31;54672;46.096;14.470;2023-07-29T03:15:23;16.35;98.47
67868;SHT31;54672;46.096;14.470;2023-07-29T03:17:50;16.44;98.31
67868;SHT31;54672;46.096;14.470;2023-07-29T03:20:15;16.62;97.83
67868;SHT31;54672;46.096;14.470;2023-07-29T03:22:43;16.69;97.45
67868;SHT31;54672;46.096;14.470;2023-07-29T03:25:09;16.72;97.21
67868;SHT31;54672;46.096;14.470;2023-07-29T03:27:34;16.76;96.70
67868;SHT31;54672;46.096;14.470;2023-07-29T03:30:02;16.86;96.30
67868;SHT31;54672;46.096;14.470;2023-07-29T03:32:27;16.93;95.95
67868;SHT31;54672;46.096;14.470;2023-07-29T03:34:53;16.96;95.78
67868;SHT31;54672;46.096;14.470;2023-07-29T03:37:19;16.97;95.63
67868;SHT31;54672;46.096;14.470;2023-07-29T03:39:45;17.04;95.33
67868;SHT31;54672;46.096;14.470;2023-07-29T03:42:10;17.06;94.98
67868;SHT31;54672;46.096;14.470;2023-07-29T03:44:36;17.13;94.83
67868;SHT31;54672;46.096;14.470;2023-07-29T03:47:01;17.13;94.88
67868;SHT31;54672;46.096;14.470;2023-07-29T03:49:26;17.09;94.88
67868;SHT31;54672;46.096;14.470;2023-07-29T03:51:52;17.23;94.89
67868;SHT31;54672;46.096;14.470;2023-07-29T03:54:17;17.50;93.99
67868;SHT31;54672;46.096;14.470;2023-07-29T03:56:42;17.57;93.38
67868;SHT31;54672;46.096;14.470;2023-07-29T03:59:08;17.45;93.88
67868;SHT31;54672;46.096;14.470;2023-07-29T04:01:33;17.35;94.19
67868;SHT31;54672;46.096;14.470;2023-07-29T04:03:59;17.47;94.03
67868;SHT31;54672;46.096;14.470;2023-07-29T04:06:24;17.55;93.81
67868;SHT31;54672;46.096;14.470;2023-07-29T04:08:50;17.40;93.94
67868;SHT31;54672;46.096;14.470;2023-07-29T04:11:15;17.34;94.16
67868;SHT31;54672;46.096;14.470;2023-07-29T04:13:41;17.14;95.02
67868;SHT31;54672;46.096;14.470;2023-07-29T04:16:07;17.19;95.24
67868;SHT31;54672;46.096;14.470;2023-07-29T04:18:32;17.12;95.35
67868;SHT31;54672;46.096;14.470;2023-07-29T04:20:58;17.09;95.45
67868;SHT31;54672;46.096;14.470;2023-07-29T04:23:23;16.99;95.81
67868;SHT31;54672;46.096;14.470;2023-07-29T04:25:49;16.87;96.01
67868;SHT31;54672;46.096;14.470;2023-07-29T04:28:15;16.83;96.23
67868;SHT31;54672;46.096;14.470;2023-07-29T04:30:40;16.75;96.61
67868;SHT31;54672;46.096;14.470;2023-07-29T04:33:06;16.76;96.80
67868;SHT31;54672;46.096;14.470;2023-07-29T04:35:31;16.86;96.53
67868;SHT31;54672;46.096;14.470;2023-07-29T04:37:57;16.86;96.54
67868;SHT31;54672;46.096;14.470;2023-07-29T04:40:22;16.87;96.41
67868;SHT31;54672;46.096;14.470;2023-07-29T04:42:48;17.02;96.27
67868;SHT31;54672;46.096;14.470;2023-07-29T04:45:14;17.22;95.22
67868;SHT31;54672;46.096;14.470;2023-07-29T04:47:39;17.23;94.87
67868;SHT31;54672;46.096;14.470;2023-07-29T04:50:05;17.17;95.05
67868;SHT31;54672;46.096;14.470;2023-07-29T04:52:31;17.26;94.72
67868;SHT31;54672;46.096;14.470;2023-07-29T04:54:56;17.23;94.63
67868;SHT31;54672;46.096;14.470;2023-07-29T04:57:22;17.20;94.77
67868;SHT31;54672;46.096;14.470;2023-07-29T04:59:47;17.22;94.70
67868;SHT31;54672;46.096;14.470;2023-07-29T05:02:13;17.22;94.75
67868;SHT31;54672;46.096;14.470;2023-07-29T05:04:38;17.26;94.82
67868;SHT31;54672;46.096;14.470;2023-07-29T05:07:03;17.17;95.22
67868;SHT31;54672;46.096;14.470;2023-07-29T05:09:29;17.20;95.16
67868;SHT31;54672;46.096;14.470;2023-07-29T05:11:54;17.17;95.73
67868;SHT31;54672;46.096;14.470;2023-07-29T05:14:20;17.17;95.36
67868;SHT31;54672;46.096;14.470;2023-07-29T05:16:45;17.23;94.94
67868;SHT31;54672;46.096;14.470;2023-07-29T05:19:11;17.26;95.59
67868;SHT31;54672;46.096;14.470;2023-07-29T05:21:37;17.30;95.48
67868;SHT31;54672;46.096;14.470;2023-07-29T05:24:03;17.40;94.64
67868;SHT31;54672;46.096;14.470;2023-07-29T05:26:29;17.54;94.49
67868;SHT31;54672;46.096;14.470;2023-07-29T05:28:56;17.70;93.67
67868;SHT31;54672;46.096;14.470;2023-07-29T05:31:22;17.89;93.14
67868;SHT31;54672;46.096;14.470;2023-07-29T05:33:48;17.93;92.28
67868;SHT31;54672;46.096;14.470;2023-07-29T05:36:14;17.64;93.26
67868;SHT31;54672;46.096;14.470;2023-07-29T05:38:39;17.71;93.15
67868;SHT31;54672;46.096;14.470;2023-07-29T05:41:05;17.75;93.35
67868;SHT31;54672;46.096;14.470;2023-07-29T05:43:30;17.98;92.13
67868;SHT31;54672;46.096;14.470;2023-07-29T05:45:55;19.77;85.67
67868;SHT31;54672;46.096;14.470;2023-07-29T05:48:21;20.32;84.23
67868;SHT31;54672;46.096;14.470;2023-07-29T05:50:47;19.80;85.16
67868;SHT31;54672;46.096;14.470;2023-07-29T05:53:13;20.14;84.61
67868;SHT31;54672;46.096;14.470;2023-07-29T05:55:39;20.65;82.80
67868;SHT31;54672;46.096;14.470;2023-07-29T05:58:04;21.20;81.23
67868;SHT31;54672;46.096;14.470;2023-07-29T06:00:30;20.13;83.63
67868;SHT31;54672;46.096;14.470;2023-07-29T06:02:55;20.86;82.58
67868;SHT31;54672;46.096;14.470;2023-07-29T06:05:21;21.00;81.23
67868;SHT31;54672;46.096;14.470;2023-07-29T06:07:46;21.02;81.52
67868;SHT31;54672;46.096;14.470;2023-07-29T06:10:15;21.74;79.80
67868;SHT31;54672;46.096;14.470;2023-07-29T06:12:44;22.97;75.87
67868;SHT31;54672;46.096;14.470;2023-07-29T06:15:09;23.03;74.84
67868;SHT31;54672;46.096;14.470;2023-07-29T06:17:35;23.11;74.10
67868;SHT31;54672;46.096;14.470;2023-07-29T06:20:00;24.51;70.28
67868;SHT31;54672;46.096;14.470;2023-07-29T06:22:26;24.31;69.91
67868;SHT31;54672;46.096;14.470;2023-07-29T06:24:51;26.58;65.26
67868;SHT31;54672;46.096;14.470;2023-07-29T06:27:17;26.60;64.95
67868;SHT31;54672;46.096;14.470;2023-07-29T06:29:42;27.80;59.59
67868;SHT31;54672;46.096;14.470;2023-07-29T06:32:08;27.46;59.62
67868;SHT31;54672;46.096;14.470;2023-07-29T06:34:33;24.53;67.74
67868;SHT31;54672;46.096;14.470;2023-07-29T06:36:58;23.45;70.92
67868;SHT31;54672;46.096;14.470;2023-07-29T06:39:24;22.32;74.99
67868;SHT31;54672;46.096;14.470;2023-07-29T06:41:49;21.98;76.54
67868;SHT31;54672;46.096;14.470;2023-07-29T06:44:14;23.31;72.56
67868;SHT31;54672;46.096;14.470;2023-07-29T06:46:40;22.74;74.05
67868;SHT31;54672;46.096;14.470;2023-07-29T06:49:05;22.91;74.09
67868;SHT31;54672;46.096;14.470;2023-07-29T06:51:31;22.33;75.50
67868;SHT31;54672;46.096;14.470;2023-07-29T06:54:00;23.61;72.30
67868;SHT31;54672;46.096;14.470;2023-07-29T06:56:25;23.45;72.82
67868;SHT31;54672;46.096;14.470;2023-07-29T06:58:50;24.44;70.97
67868;SHT31;54672;46.096;14.470;2023-07-29T07:01:16;25.20;67.99
67868;SHT31;54672;46.096;14.470;2023-07-29T07:03:41;25.46;67.10
67868;SHT31;54672;46.096;14.470;2023-07-29T07:06:08;27.53;61.28
67868;SHT31;54672;46.096;14.470;2023-07-29T07:08:33;29.63;55.45
67868;SHT31;54672;46.096;14.470;2023-07-29T07:10:58;28.42;58.60
67868;SHT31;54672;46.096;14.470;2023-07-29T07:13:24;30.68;52.59
67868;SHT31;54672;46.096;14.470;2023-07-29T07:15:49;31.76;50.28
67868;SHT31;54672;46.096;14.470;2023-07-29T07:18:15;31.26;51.32
67868;SHT31;54672;46.096;14.470;2023-07-29T07:20:40;28.59;57.85
67868;SHT31;54672;46.096;14.470;2023-07-29T07:23:05;29.35;56.73
67868;SHT31;54672;46.096;14.470;2023-07-29T07:25:33;28.40;57.33
67868;SHT31;54672;46.096;14.470;2023-07-29T07:27:59;29.70;55.74
67868;SHT31;54672;46.096;14.470;2023-07-29T07:30:25;31.00;53.60
67868;SHT31;54672;46.096;14.470;2023-07-29T07:32:50;30.85;53.32
67868;SHT31;54672;46.096;14.470;2023-07-29T07:35:15;27.03;62.22
67868;SHT31;54672;46.096;14.470;2023-07-29T07:37:41;27.18;62.21
67868;SHT31;54672;46.096;14.470;2023-07-29T07:40:06;27.23;62.94
67868;SHT31;54672;46.096;14.470;2023-07-29T07:42:32;27.84;61.43
67868;SHT31;54672;46.096;14.470;2023-07-29T07:44:58;29.90;56.84
67868;SHT31;54672;46.096;14.470;2023-07-29T07:47:23;30.98;55.08
67868;SHT31;54672;46.096;14.470;2023-07-29T07:49:48;31.34;53.42
67868;SHT31;54672;46.096;14.470;2023-07-29T07:52:15;29.82;57.64
67868;SHT31;54672;46.096;14.470;2023-07-29T07:54:41;30.06;56.26
67868;SHT31;54672;46.096;14.470;2023-07-29T07:57:06;29.65;57.65
67868;SHT31;54672;46.096;14.470;2023-07-29T07:59:32;30.48;56.65
67868;SHT31;54672;46.096;14.470;2023-07-29T08:01:57;29.49;57.78
67868;SHT31;54672;46.096;14.470;2023-07-29T08:04:22;30.34;56.36
67868;SHT31;54672;46.096;14.470;2023-07-29T08:06:48;28.46;60.69
67868;SHT31;54672;46.096;14.470;2023-07-29T08:09:13;29.17;59.25
67868;SHT31;54672;46.096;14.470;2023-07-29T08:11:40;28.16;61.36
67868;SHT31;54672;46.096;14.470;2023-07-29T08:14:05;27.13;64.56
67868;SHT31;54672;46.096;14.470;2023-07-29T08:16:31;28.68;62.10
67868;SHT31;54672;46.096;14.470;2023-07-29T08:18:56;29.12;60.36
67868;SHT31;54672;46.096;14.470;2023-07-29T08:21:21;28.13;62.79
67868;SHT31;54672;46.096;14.470;2023-07-29T08:23:47;28.83;61.25
67868;SHT31;54672;46.096;14.470;2023-07-29T08:26:12;28.31;62.18
67868;SHT31;54672;46.096;14.470;2023-07-29T08:28:38;28.37;62.27
67868;SHT31;54672;46.096;14.470;2023-07-29T08:31:05;29.14;60.76
67868;SHT31;54672;46.096;14.470;2023-07-29T08:33:31;29.93;59.42
67868;SHT31;54672;46.096;14.470;2023-07-29T08:35:59;29.92;59.95
67868;SHT31;54672;46.096;14.470;2023-07-29T08:38:24;29.72;60.33
67868;SHT31;54672;46.096;14.470;2023-07-29T08:41:06;29.31;60.88
67868;SHT31;54672;46.096;14.470;2023-07-29T08:43:38;29.17;60.63
67868;SHT31;54672;46.096;14.470;2023-07-29T08:46:03;28.71;62.56
67868;SHT31;54672;46.096;14.470;2023-07-29T08:48:42;27.89;63.83
67868;SHT31;54672;46.096;14.470;2023-07-29T08:51:09;29.07;61.86
67868;SHT31;54672;46.096;14.470;2023-07-29T08:53:35;29.76;59.88
67868;SHT31;54672;46.096;14.470;2023-07-29T08:56:01;30.37;59.51
67868;SHT31;54672;46.096;14.470;2023-07-29T08:58:27;30.31;58.25
67868;SHT31;54672;46.096;14.470;2023-07-29T09:00:53;30.33;57.50
67868;SHT31;54672;46.096;14.470;2023-07-29T09:03:20;30.30;57.82
67868;SHT31;54672;46.096;14.470;2023-07-29T09:05:45;30.41;57.76
67868;SHT31;54672;46.096;14.470;2023-07-29T09:08:11;28.22;63.17
67868;SHT31;54672;46.096;14.470;2023-07-29T09:10:37;28.19;63.97
67868;SHT31;54672;46.096;14.470;2023-07-29T09:13:03;29.82;59.86
67868;SHT31;54672;46.096;14.470;2023-07-29T09:15:29;30.44;58.27
67868;SHT31;54672;46.096;14.470;2023-07-29T09:17:57;30.60;58.82
67868;SHT31;54672;46.096;14.470;2023-07-29T09:20:27;30.91;57.42
67868;SHT31;54672;46.096;14.470;2023-07-29T09:22:58;31.22;56.41
67868;SHT31;54672;46.096;14.470;2023-07-29T09:25:25;30.96;57.10
67868;SHT31;54672;46.096;14.470;2023-07-29T09:27:50;31.40;55.79
67868;SHT31;54672;46.096;14.470;2023-07-29T09:30:16;31.63;55.62
67868;SHT31;54672;46.096;14.470;2023-07-29T09:32:42;31.12;56.41
67868;SHT31;54672;46.096;14.470;2023-07-29T09:35:12;30.38;57.98
67868;SHT31;54672;46.096;14.470;2023-07-29T09:37:38;29.22;61.42
67868;SHT31;54672;46.096;14.470;2023-07-29T09:40:05;28.50;63.18
67868;SHT31;54672;46.096;14.470;2023-07-29T09:42:31;28.19;64.91
67868;SHT31;54672;46.096;14.470;2023-07-29T09:44:57;28.22;64.33
67868;SHT31;54672;46.096;14.470;2023-07-29T09:47:24;27.80;65.34
67868;SHT31;54672;46.096;14.470;2023-07-29T09:49:50;27.55;66.11
67868;SHT31;54672;46.096;14.470;2023-07-29T09:52:20;27.31;66.78
67868;SHT31;54672;46.096;14.470;2023-07-29T09:54:46;27.38;66.47
67868;SHT31;54672;46.096;14.470;2023-07-29T09:57:18;27.06;67.39
67868;SHT31;54672;46.096;14.470;2023-07-29T09:59:53;27.11;68.53
67868;SHT31;54672;46.096;14.470;2023-07-29T10:02:20;27.57;67.65
67868;SHT31;54672;46.096;14.470;2023-07-29T10:04:46;27.92;65.60
67868;SHT31;54672;46.096;14.470;2023-07-29T10:07:12;27.77;65.58
67868;SHT31;54672;46.096;14.470;2023-07-29T10:09:39;27.98;65.40
67868;SHT31;54672;46.096;14.470;2023-07-29T10:12:06;28.15;64.30
67868;SHT31;54672;46.096;14.470;2023-07-29T10:14:32;28.26;63.84
67868;SHT31;54672;46.096;14.470;2023-07-29T10:16:58;28.35;62.19
67868;SHT31;54672;46.096;14.470;2023-07-29T10:19:25;28.60;62.14
67868;SHT31;54672;46.096;14.470;2023-07-29T10:21:51;28.61;61.12
67868;SHT31;54672;46.096;14.470;2023-07-29T10:24:19;28.49;61.47
67868;SHT31;54672;46.096;14.470;2023-07-29T10:26:49;28.47;61.03
67868;SHT31;54672;46.096;14.470;2023-07-29T10:29:18;28.45;61.67
67868;SHT31;54672;46.096;14.470;2023-07-29T10:31:45;28.63;60.16
67868;SHT31;54672;46.096;14.470;2023-07-29T10:34:12;28.80;59.15
67868;SHT31;54672;46.096;14.470;2023-07-29T10:36:39;29.05;57.90
67868;SHT31;54672;46.096;14.470;2023-07-29T10:39:06;29.22;58.39
67868;SHT31;54672;46.096;14.470;2023-07-29T10:47:23;29.83;55.18
67868;SHT31;54672;46.096;14.470;2023-07-29T10:49:52;29.80;53.72
67868;SHT31;54672;46.096;14.470;2023-07-29T10:55:00;29.79;55.60
67868;SHT31;54672;46.096;14.470;2023-07-29T10:57:35;30.03;56.76
67868;SHT31;54672;46.096;14.470;2023-07-29T11:00:03;30.03;55.27
67868;SHT31;54672;46.096;14.470;2023-07-29T11:02:34;30.09;54.18
67868;SHT31;54672;46.096;14.470;2023-07-29T11:05:17;29.22;57.24
67868;SHT31;54672;46.096;14.470;2023-07-29T11:07:47;29.62;56.14
67868;SHT31;54672;46.096;14.470;2023-07-29T11:10:13;29.58;55.74
67868;SHT31;54672;46.096;14.470;2023-07-29T11:12:47;29.83;56.99
67868;SHT31;54672;46.096;14.470;2023-07-29T11:15:20;29.83;53.38
67868;SHT31;54672;46.096;14.470;2023-07-29T11:17:48;29.75;53.79
67868;SHT31;54672;46.096;14.470;2023-07-29T11:20:15;29.63;53.88
67868;SHT31;54672;46.096;14.470;2023-07-29T11:22:43;29.83;54.71
67868;SHT31;54672;46.096;14.470;2023-07-29T11:25:12;29.97;55.42
67868;SHT31;54672;46.096;14.470;2023-07-29T11:27:38;29.97;54.53
67868;SHT31;54672;46.096;14.470;2023-07-29T11:30:06;30.02;54.61
67868;SHT31;54672;46.096;14.470;2023-07-29T11:32:34;30.34;54.61
67868;SHT31;54672;46.096;14.470;2023-07-29T11:37:36;29.75;55.68
67868;SHT31;54672;46.096;14.470;2023-07-29T11:40:02;29.90;56.10
67868;SHT31;54672;46.096;14.470;2023-07-29T11:42:28;30.09;54.68
67868;SHT31;54672;46.096;14.470;2023-07-29T11:44:57;30.18;54.37
67868;SHT31;54672;46.096;14.470;2023-07-29T11:47:23;30.45;53.76
67868;SHT31;54672;46.096;14.470;2023-07-29T11:49:49;30.34;54.22
67868;SHT31;54672;46.096;14.470;2023-07-29T11:52:14;30.57;54.94
67868;SHT31;54672;46.096;14.470;2023-07-29T11:54:44;30.34;54.85
67868;SHT31;54672;46.096;14.470;2023-07-29T11:57:10;29.99;55.99
67868;SHT31;54672;46.096;14.470;2023-07-29T11:59:36;30.44;56.56
67868;SHT31;54672;46.096;14.470;2023-07-29T12:02:06;30.74;54.25
67868;SHT31;54672;46.096;14.470;2023-07-29T12:04:33;30.38;53.93
67868;SHT31;54672;46.096;14.470;2023-07-29T12:06:59;29.93;55.71
67868;SHT31;54672;46.096;14.470;2023-07-29T12:09:26;30.03;56.59
67868;SHT31;54672;46.096;14.470;2023-07-29T12:11:52;30.13;56.76
67868;SHT31;54672;46.096;14.470;2023-07-29T12:14:18;29.99;56.50
67868;SHT31;54672;46.096;14.470;2023-07-29T12:16:44;29.62;57.47
67868;SHT31;54672;46.096;14.470;2023-07-29T12:19:13;29.66;57.25
67868;SHT31;54672;46.096;14.470;2023-07-29T12:21:41;29.62;58.01
67868;SHT31;54672;46.096;14.470;2023-07-29T12:24:06;29.32;59.63
67868;SHT31;54672;46.096;14.470;2023-07-29T12:26:32;29.34;59.95
67868;SHT31;54672;46.096;14.470;2023-07-29T12:28:58;29.85;59.47
67868;SHT31;54672;46.096;14.470;2023-07-29T12:31:32;30.27;58.60
67868;SHT31;54672;46.096;14.470;2023-07-29T12:33:58;30.30;56.34
67868;SHT31;54672;46.096;14.470;2023-07-29T12:36:41;30.10;57.98
67868;SHT31;54672;46.096;14.470;2023-07-29T12:39:23;30.12;56.88
67868;SHT31;54672;46.096;14.470;2023-07-29T12:41:49;30.31;57.20
67868;SHT31;54672;46.096;14.470;2023-07-29T12:44:15;30.44;57.52
67868;SHT31;54672;46.096;14.470;2023-07-29T12:46:41;30.44;56.81
67868;SHT31;54672;46.096;14.470;2023-07-29T12:49:07;30.38;56.35
67868;SHT31;54672;46.096;14.470;2023-07-29T12:51:32;30.24;56.84
67868;SHT31;54672;46.096;14.470;2023-07-29T12:53:58;30.23;56.75
67868;SHT31;54672;46.096;14.470;2023-07-29T12:56:24;30.37;56.72
67868;SHT31;54672;46.096;14.470;2023-07-29T12:58:49;30.34;56.17
67868;SHT31;54672;46.096;14.470;2023-07-29T13:01:14;30.30;56.38
67868;SHT31;54672;46.096;14.470;2023-07-29T13:03:43;30.44;55.64
67868;SHT31;54672;46.096;14.470;2023-07-29T13:06:09;30.41;56.19
67868;SHT31;54672;46.096;14.470;2023-07-29T13:08:34;30.21;55.61
67868;SHT31;54672;46.096;14.470;2023-07-29T13:11:00;29.97;56.53
67868;SHT31;54672;46.096;14.470;2023-07-29T13:13:25;29.97;56.59
67868;SHT31;54672;46.096;14.470;2023-07-29T13:15:51;30.02;55.96
67868;SHT31;54672;46.096;14.470;2023-07-29T13:18:16;29.93;56.71
67868;SHT31;54672;46.096;14.470;2023-07-29T13:20:42;30.00;56.12
67868;SHT31;54672;46.096;14.470;2023-07-29T13:23:07;30.18;55.51
67868;SHT31;54672;46.096;14.470;2023-07-29T13:25:32;30.28;56.69
67868;SHT31;54672;46.096;14.470;2023-07-29T13:27:58;30.28;57.94
67868;SHT31;54672;46.096;14.470;2023-07-29T13:30:23;30.43;57.57
67868;SHT31;54672;46.096;14.470;2023-07-29T13:32:49;30.53;56.40
67868;SHT31;54672;46.096;14.470;2023-07-29T13:35:14;30.21;55.35
67868;SHT31;54672;46.096;14.470;2023-07-29T13:37:40;30.13;55.40
67868;SHT31;54672;46.096;14.470;2023-07-29T13:40:06;30.06;56.01
67868;SHT31;54672;46.096;14.470;2023-07-29T13:42:31;30.12;55.58
67868;SHT31;54672;46.096;14.470;2023-07-29T13:44:56;29.99;56.01
67868;SHT31;54672;46.096;14.470;2023-07-29T13:47:22;29.93;56.65
67868;SHT31;54672;46.096;14.470;2023-07-29T13:49:47;30.00;57.26
67868;SHT31;54672;46.096;14.470;2023-07-29T13:52:13;29.77;55.62
67868;SHT31;54672;46.096;14.470;2023-07-29T13:54:39;29.76;55.71
67868;SHT31;54672;46.096;14.470;2023-07-29T13:57:05;29.82;55.93
67868;SHT31;54672;46.096;14.470;2023-07-29T13:59:32;29.69;56.56
67868;SHT31;54672;46.096;14.470;2023-07-29T14:01:57;29.70;56.32
67868;SHT31;54672;46.096;14.470;2023-07-29T14:04:23;29.73;56.26
67868;SHT31;54672;46.096;14.470;2023-07-29T14:06:48;29.52;56.62
67868;SHT31;54672;46.096;14.470;2023-07-29T14:09:13;29.67;56.13
67868;SHT31;54672;46.096;14.470;2023-07-29T14:11:39;29.54;56.00
67868;SHT31;54672;46.096;14.470;2023-07-29T14:14:04;29.48;56.45
67868;SHT31;54672;46.096;14.470;2023-07-29T14:16:30;29.56;56.65
67868;SHT31;54672;46.096;14.470;2023-07-29T14:18:55;29.49;56.06
67868;SHT31;54672;46.096;14.470;2023-07-29T14:21:21;29.69;56.57
67868;SHT31;54672;46.096;14.470;2023-07-29T14:23:46;29.52;56.93
67868;SHT31;54672;46.096;14.470;2023-07-29T14:26:11;29.58;57.26
67868;SHT31;54672;46.096;14.470;2023-07-29T14:28:37;29.55;57.25
67868;SHT31;54672;46.096;14.470;2023-07-29T14:31:02;29.58;57.08
67868;SHT31;54672;46.096;14.470;2023-07-29T14:33:28;29.51;57.35
67868;SHT31;54672;46.096;14.470;2023-07-29T14:35:53;29.49;57.09
67868;SHT31;54672;46.096;14.470;2023-07-29T14:38:19;29.45;56.64
67868;SHT31;54672;46.096;14.470;2023-07-29T14:40:47;29.32;57.64
67868;SHT31;54672;46.096;14.470;2023-07-29T14:43:13;29.24;57.83
67868;SHT31;54672;46.096;14.470;2023-07-29T14:45:38;29.42;57.62
67868;SHT31;54672;46.096;14.470;2023-07-29T14:48:04;29.52;57.99
67868;SHT31;54672;46.096;14.470;2023-07-29T14:50:30;29.49;56.61
67868;SHT31;54672;46.096;14.470;2023-07-29T14:52:55;29.31;56.60
67868;SHT31;54672;46.096;14.470;2023-07-29T14:55:20;29.11;56.52
67868;SHT31;54672;46.096;14.470;2023-07-29T14:57:46;29.01;57.55
67868;SHT31;54672;46.096;14.470;2023-07-29T15:00:12;29.01;56.97
67868;SHT31;54672;46.096;14.470;2023-07-29T15:02:37;29.24;56.93
67868;SHT31;54672;46.096;14.470;2023-07-29T15:05:03;28.97;56.74
67868;SHT31;54672;46.096;14.470;2023-07-29T15:07:29;29.01;57.54
67868;SHT31;54672;46.096;14.470;2023-07-29T15:09:54;28.97;56.66
67868;SHT31;54672;46.096;14.470;2023-07-29T15:12:23;28.84;57.07
67868;SHT31;54672;46.096;14.470;2023-07-29T15:14:48;28.91;57.40
67868;SHT31;54672;46.096;14.470;2023-07-29T15:17:14;28.88;56.92
67868;SHT31;54672;46.096;14.470;2023-07-29T15:19:39;29.00;56.66
67868;SHT31;54672;46.096;14.470;2023-07-29T15:22:05;28.96;57.50
67868;SHT31;54672;46.096;14.470;2023-07-29T15:24:30;29.00;56.98
67868;SHT31;54672;46.096;14.470;2023-07-29T15:26:56;28.93;56.80